createdAt,value
2018-06-01T00:02:14.871Z,2.60
2018-06-01T00:04:42.234Z,3.10
2018-06-01T00:07:09.623Z,3.10
2018-06-01T00:09:36.971Z,3.00
2018-06-01T00:12:04.326Z,3.00
2018-06-01T00:14:31.632Z,2.90
2018-06-01T00:16:58.957Z,3.28
2018-06-01T00:19:26.293Z,3.30
2018-06-01T00:21:53.647Z,2.93
2018-06-01T00:24:21.043Z,3.17
2018-06-01T00:26:48.586Z,3.30
2018-06-01T00:29:16.213Z,3.05
2018-06-01T00:31:43.770Z,3.40
2018-06-01T00:34:11.115Z,3.00
2018-06-01T00:36:38.426Z,3.10
2018-06-01T00:39:05.751Z,3.50
2018-06-01T00:41:33.402Z,3.10
2018-06-01T00:44:00.954Z,3.35
2018-06-01T00:46:28.567Z,3.20
2018-06-01T00:48:55.908Z,3.00
2018-06-01T00:51:23.198Z,3.30
2018-06-01T00:53:50.590Z,3.20
2018-06-01T00:56:18.119Z,3.47
2018-06-01T00:58:45.707Z,2.90
2018-06-01T01:01:13.367Z,2.90
2018-06-01T01:03:40.926Z,3.15
2018-06-01T01:06:08.582Z,3.00
2018-06-01T01:08:35.931Z,3.17
2018-06-01T01:11:03.497Z,2.97
2018-06-01T01:13:30.871Z,2.90
2018-06-01T01:15:58.523Z,2.90
2018-06-01T01:18:26.188Z,3.40
2018-06-01T01:20:53.885Z,3.03
2018-06-01T01:23:21.183Z,3.10
2018-06-01T01:25:48.542Z,2.80
2018-06-01T01:28:16.224Z,2.90
2018-06-01T01:30:43.561Z,2.92
2018-06-01T01:33:10.861Z,3.40
2018-06-01T01:35:38.199Z,2.92
2018-06-01T01:38:05.763Z,2.70
2018-06-01T01:40:33.405Z,3.00
2018-06-01T01:43:01.083Z,2.80
2018-06-01T01:45:28.414Z,2.80
2018-06-01T01:47:55.751Z,3.15
2018-06-01T01:50:23.338Z,3.00
2018-06-01T01:52:50.994Z,2.87
2018-06-01T01:55:18.365Z,2.60
2018-06-01T01:57:45.669Z,2.87
2018-06-01T02:00:13.020Z,3.00
2018-06-01T02:02:40.367Z,2.60
2018-06-01T02:05:07.727Z,3.10
2018-06-01T02:07:35.065Z,2.75
2018-06-01T02:10:02.369Z,2.80
2018-06-01T02:12:29.941Z,3.00
2018-06-01T02:14:57.266Z,3.10
2018-06-01T02:17:24.855Z,2.90
2018-06-01T02:19:52.243Z,3.20
2018-06-01T02:22:19.539Z,2.87
2018-06-01T02:24:46.870Z,2.60
2018-06-01T02:27:14.486Z,2.90
2018-06-01T02:29:41.811Z,3.03
2018-06-01T02:32:09.395Z,2.83
2018-06-01T02:34:37.068Z,3.00
2018-06-01T02:37:04.455Z,2.60
2018-06-01T02:39:32.184Z,2.85
2018-06-01T02:41:59.502Z,3.10
2018-06-01T02:44:26.867Z,2.72
2018-06-01T02:46:54.199Z,2.80
2018-06-01T02:49:21.807Z,2.60
2018-06-01T02:51:49.152Z,2.87
2018-06-01T02:54:16.449Z,2.90
2018-06-01T02:56:44.074Z,3.10
2018-06-01T02:59:11.633Z,2.70
2018-06-01T03:01:38.947Z,2.75
2018-06-01T03:04:06.304Z,3.00
2018-06-01T03:06:39.644Z,2.70
2018-06-01T03:09:07.302Z,3.00
2018-06-01T03:11:34.627Z,2.95
2018-06-01T03:14:02.000Z,2.83
2018-06-01T03:16:29.334Z,2.72
2018-06-01T03:18:56.680Z,2.40
2018-06-01T03:21:24.391Z,2.78
2018-06-01T03:23:51.706Z,2.90
2018-06-01T03:26:19.071Z,2.60
2018-06-01T03:28:46.387Z,2.72
2018-06-01T03:31:13.723Z,2.78
2018-06-01T03:33:41.372Z,2.37
2018-06-01T03:36:09.030Z,2.95
2018-06-01T03:38:36.334Z,2.80
2018-06-01T03:41:03.952Z,2.70
2018-06-01T03:43:31.296Z,2.60
2018-06-01T03:45:58.863Z,2.78
2018-06-01T03:48:26.531Z,3.10
2018-06-01T03:50:54.192Z,2.85
2018-06-01T03:53:21.538Z,2.72
2018-06-01T03:55:48.882Z,2.78
2018-06-01T03:58:16.456Z,3.00
2018-06-01T04:00:43.807Z,2.80
2018-06-01T04:03:11.167Z,2.90
2018-06-01T04:05:38.498Z,3.00
2018-06-01T04:08:06.087Z,2.80
2018-06-01T04:10:33.430Z,2.70
2018-06-01T04:13:00.759Z,2.60
2018-06-01T04:15:28.120Z,2.78
2018-06-01T04:17:55.816Z,2.80
2018-06-01T04:20:23.373Z,2.62
2018-06-01T04:22:51.030Z,2.72
2018-06-01T04:25:18.590Z,2.47
2018-06-01T04:27:45.910Z,2.40
2018-06-01T04:30:13.267Z,2.83
2018-06-01T04:32:40.561Z,2.60
2018-06-01T04:35:08.218Z,2.90
2018-06-01T04:37:35.551Z,2.80
2018-06-01T04:40:02.858Z,2.92
2018-06-01T04:42:30.178Z,2.60
2018-06-01T04:44:57.846Z,2.65
2018-06-01T04:47:25.198Z,2.90
2018-06-01T04:49:52.757Z,2.70
2018-06-01T04:52:20.318Z,2.58
2018-06-01T04:54:47.635Z,3.10
2018-06-01T04:57:14.963Z,2.62
2018-06-01T04:59:42.347Z,2.60
2018-06-01T05:02:09.675Z,3.22
2018-06-01T05:04:36.993Z,2.80
2018-06-01T05:07:04.342Z,2.80
2018-06-01T05:09:31.679Z,2.60
2018-06-01T05:11:59.011Z,2.75
2018-06-01T05:14:26.622Z,2.90
2018-06-01T05:16:53.967Z,2.80
2018-06-01T05:19:21.293Z,2.40
2018-06-01T05:21:48.652Z,2.67
2018-06-01T05:24:15.987Z,2.67
2018-06-01T05:26:43.600Z,2.80
2018-06-01T05:29:10.930Z,2.70
2018-06-01T05:31:38.520Z,2.70
2018-06-01T05:34:05.875Z,2.87
2018-06-01T05:36:33.185Z,2.70
2018-06-01T05:39:00.502Z,2.62
2018-06-01T05:41:27.803Z,2.90
2018-06-01T05:43:55.140Z,2.50
2018-06-01T05:46:22.751Z,3.15
2018-06-01T05:48:50.085Z,2.70
2018-06-01T05:51:17.439Z,2.50
2018-06-01T05:53:44.787Z,2.60
2018-06-01T05:56:12.122Z,3.10
2018-06-01T05:58:39.418Z,2.60
2018-06-01T06:01:06.758Z,3.10
2018-06-01T06:03:34.107Z,2.90
2018-06-01T06:06:01.429Z,2.80
2018-06-01T06:08:29.055Z,3.00
2018-06-01T06:10:56.715Z,3.00
2018-06-01T06:13:24.159Z,2.85
2018-06-01T06:15:51.492Z,3.65
2018-06-01T06:18:18.858Z,3.00
2018-06-01T06:20:46.166Z,2.75
2018-06-01T06:23:13.519Z,3.30
2018-06-01T06:25:40.854Z,2.77
2018-06-01T06:28:08.153Z,3.65
2018-06-01T06:30:35.502Z,2.80
2018-06-01T06:33:02.802Z,3.30
2018-06-01T06:35:30.471Z,2.40
2018-06-01T06:37:58.859Z,3.00
2018-06-01T06:40:26.175Z,3.95
2018-06-01T06:42:53.531Z,3.50
2018-06-01T06:45:20.920Z,3.75
2018-06-01T06:47:48.239Z,3.10
2018-06-01T06:50:15.550Z,2.80
2018-06-01T06:52:42.902Z,3.50
2018-06-01T06:55:10.384Z,3.20
2018-06-01T06:57:37.665Z,2.90
2018-06-01T07:00:05.146Z,2.85
2018-06-01T07:02:32.514Z,3.00
2018-06-01T07:04:59.863Z,2.97
2018-06-01T07:07:27.356Z,3.47
2018-06-01T07:09:55.491Z,2.95
2018-06-01T07:12:22.843Z,4.50
2018-06-01T07:14:50.505Z,4.25
2018-06-01T07:17:18.042Z,4.20
2018-06-01T07:19:45.738Z,3.40
2018-06-01T07:22:13.037Z,3.70
2018-06-01T07:24:40.653Z,2.90
2018-06-01T07:27:37.407Z,6.07
2018-06-01T07:30:04.742Z,6.10
2018-06-01T07:32:32.092Z,3.60
2018-06-01T07:34:59.443Z,6.57
2018-06-01T07:37:27.016Z,5.40
2018-06-01T07:39:54.375Z,5.77
2018-06-01T07:42:21.743Z,3.70
2018-06-01T07:44:49.082Z,3.80
2018-06-01T07:47:16.447Z,3.20
2018-06-01T07:49:44.103Z,3.12
2018-06-01T07:52:11.405Z,3.22
2018-06-01T07:54:38.792Z,3.47
2018-06-01T07:57:06.479Z,3.50
2018-06-01T07:59:33.815Z,3.50
2018-06-01T08:02:01.360Z,3.50
2018-06-01T08:04:28.698Z,3.50
2018-06-01T08:06:56.301Z,3.47
2018-06-01T08:09:23.632Z,3.40
2018-06-01T08:11:50.975Z,3.70
2018-06-01T08:14:18.262Z,3.40
2018-06-01T08:16:45.609Z,3.73
2018-06-01T08:19:12.931Z,4.97
2018-06-01T08:21:40.246Z,3.90
2018-06-01T08:24:07.591Z,4.33
2018-06-01T08:26:34.991Z,4.17
2018-06-01T08:29:02.582Z,3.35
2018-06-01T08:31:29.897Z,3.58
2018-06-01T08:33:57.193Z,3.30
2018-06-01T08:36:24.876Z,3.40
2018-06-01T08:38:52.193Z,3.60
2018-06-01T08:41:19.510Z,3.50
2018-06-01T08:43:46.840Z,4.00
2018-06-01T08:46:14.187Z,3.60
2018-06-01T08:48:41.544Z,3.35
2018-06-01T08:51:08.909Z,3.83
2018-06-01T08:53:36.571Z,3.60
2018-06-01T08:56:03.886Z,3.40
2018-06-01T08:58:31.479Z,3.40
2018-06-01T09:00:58.810Z,3.70
2018-06-01T09:03:26.109Z,3.40
2018-06-01T09:05:53.450Z,3.60
2018-06-01T09:08:20.785Z,3.95
2018-06-01T09:10:48.097Z,3.40
2018-06-01T09:13:15.713Z,3.45
2018-06-01T09:15:43.034Z,4.10
2018-06-01T09:18:10.630Z,3.30
2018-06-01T09:20:37.959Z,3.80
2018-06-01T09:23:05.319Z,3.80
2018-06-01T09:25:33.004Z,3.40
2018-06-01T09:28:00.297Z,3.60
2018-06-01T09:30:27.884Z,3.67
2018-06-01T09:32:55.484Z,3.80
2018-06-01T09:35:22.814Z,3.60
2018-06-01T09:37:50.392Z,3.50
2018-06-01T09:40:17.734Z,4.10
2018-06-01T09:42:45.102Z,3.80
2018-06-01T09:45:12.419Z,3.60
2018-06-01T09:47:39.746Z,3.50
2018-06-01T09:50:07.123Z,3.70
2018-06-01T09:52:34.474Z,3.60
2018-06-01T09:55:01.831Z,3.97
2018-06-01T09:57:29.223Z,3.80
2018-06-01T09:59:56.789Z,3.60
2018-06-01T10:02:24.460Z,4.10
2018-06-01T10:04:51.787Z,4.03
2018-06-01T10:07:19.372Z,4.50
2018-06-01T10:09:52.381Z,3.53
2018-06-01T10:12:19.740Z,3.70
2018-06-01T10:14:47.072Z,3.65
2018-06-01T10:17:14.739Z,3.50
2018-06-01T10:19:42.059Z,3.80
2018-06-01T10:22:09.435Z,3.43
2018-06-01T10:24:37.009Z,3.40
2018-06-01T10:27:04.382Z,3.80
2018-06-01T10:29:31.719Z,3.50
2018-06-01T10:31:59.034Z,3.62
2018-06-01T10:34:26.365Z,3.28
2018-06-01T10:36:53.728Z,3.30
2018-06-01T10:39:21.357Z,3.53
2018-06-01T10:41:48.684Z,3.40
2018-06-01T10:44:15.991Z,3.78
2018-06-01T10:46:43.533Z,3.80
2018-06-01T10:49:10.849Z,3.72
2018-06-01T10:51:38.199Z,3.85
2018-06-01T10:54:05.547Z,3.60
2018-06-01T10:56:32.907Z,3.80
2018-06-01T10:59:00.496Z,3.73
2018-06-01T11:01:27.825Z,3.60
2018-06-01T11:03:55.137Z,3.62
2018-06-01T11:06:22.761Z,3.90
2018-06-01T11:08:50.115Z,3.10
2018-06-01T11:11:17.438Z,3.62
2018-06-01T11:13:44.794Z,3.60
2018-06-01T11:16:12.135Z,3.25
2018-06-01T11:18:39.495Z,3.58
2018-06-01T11:21:06.818Z,3.40
2018-06-01T11:23:34.142Z,4.10
2018-06-01T11:26:01.703Z,3.40
2018-06-01T11:28:29.366Z,4.00
2018-06-01T11:30:56.713Z,3.40
2018-06-01T11:33:24.075Z,3.40
2018-06-01T11:35:51.398Z,3.72
2018-06-01T11:38:18.786Z,3.10
2018-06-01T11:40:46.350Z,3.22
2018-06-01T11:43:14.010Z,3.47
2018-06-01T11:45:41.355Z,4.40
2018-06-01T11:48:08.759Z,4.50
2018-06-01T11:50:36.081Z,5.00
2018-06-01T11:53:03.399Z,5.57
2018-06-01T11:55:30.751Z,5.70
2018-06-01T11:58:04.746Z,5.78
2018-06-01T12:00:33.902Z,5.60
2018-06-01T12:03:01.232Z,5.70
2018-06-01T12:05:28.615Z,6.00
2018-06-01T12:07:56.199Z,6.60
2018-06-01T12:10:23.581Z,6.23
2018-06-01T12:12:51.319Z,6.20
2018-06-01T12:15:18.719Z,6.30
2018-06-01T12:17:46.156Z,6.35
2018-06-01T12:20:13.438Z,6.40
2018-06-01T12:22:40.805Z,6.30
2018-06-01T12:25:08.117Z,6.00
2018-06-01T12:27:35.530Z,6.60
2018-06-01T12:30:02.879Z,6.40
2018-06-01T12:32:30.262Z,6.93
2018-06-01T12:34:59.048Z,6.50
2018-06-01T12:37:26.421Z,7.43
2018-06-01T12:39:54.798Z,6.93
2018-06-01T12:42:22.308Z,7.30
2018-06-01T12:44:49.661Z,7.40
2018-06-01T12:47:17.727Z,7.40
2018-06-01T12:49:45.030Z,7.00
2018-06-01T12:52:12.377Z,6.90
2018-06-01T12:54:39.691Z,6.20
2018-06-01T12:57:07.036Z,6.05
2018-06-01T12:59:34.626Z,6.80
2018-06-01T13:02:01.967Z,6.80
2018-06-01T13:04:29.320Z,7.60
2018-06-01T13:06:56.887Z,7.32
2018-06-01T13:09:24.275Z,7.97
2018-06-01T13:11:51.595Z,7.22
2018-06-01T13:14:18.914Z,7.03
2018-06-01T13:16:46.409Z,6.37
2018-06-01T13:19:13.726Z,6.03
2018-06-01T13:21:41.060Z,6.95
2018-06-01T13:24:08.399Z,6.07
2018-06-01T13:26:35.771Z,5.90
2018-06-01T13:29:03.114Z,6.35
2018-06-01T13:31:30.422Z,6.90
2018-06-01T13:33:57.803Z,9.87
2018-06-01T13:36:25.291Z,9.50
2018-06-01T13:38:52.913Z,5.90
2018-06-01T13:41:20.258Z,6.00
2018-06-01T13:43:47.578Z,6.78
2018-06-01T13:46:14.880Z,5.80
2018-06-01T13:48:42.475Z,6.00
2018-06-01T13:51:09.777Z,6.13
2018-06-01T13:53:37.164Z,5.70
2018-06-01T13:56:04.512Z,6.37
2018-06-01T13:58:31.842Z,6.10
2018-06-01T14:00:59.216Z,6.40
2018-06-01T14:03:26.564Z,6.15
2018-06-01T14:05:53.866Z,6.30
2018-06-01T14:08:21.492Z,6.30
2018-06-01T14:10:48.796Z,7.37
2018-06-01T14:13:16.105Z,6.50
2018-06-01T14:15:43.456Z,6.70
2018-06-01T14:18:10.805Z,6.87
2018-06-01T14:20:38.169Z,7.37
2018-06-01T14:23:05.502Z,7.37
2018-06-01T14:25:32.829Z,6.70
2018-06-01T14:28:00.129Z,6.60
2018-06-01T14:30:27.491Z,6.65
2018-06-01T14:32:54.806Z,6.82
2018-06-01T14:35:22.399Z,6.37
2018-06-01T14:37:49.694Z,6.80
2018-06-01T14:40:17.358Z,6.60
2018-06-01T14:42:44.675Z,6.80
2018-06-01T14:45:12.043Z,7.07
2018-06-01T14:47:39.578Z,9.30
2018-06-01T14:50:07.246Z,9.52
2018-06-01T14:52:34.905Z,8.20
2018-06-01T14:55:02.236Z,7.03
2018-06-01T14:57:29.821Z,7.20
2018-06-01T14:59:57.167Z,6.80
2018-06-01T15:02:24.520Z,7.10
2018-06-01T15:04:52.092Z,6.97
2018-06-01T15:07:19.427Z,6.80
2018-06-01T15:09:47.116Z,6.30
2018-06-01T15:12:14.436Z,6.20
2018-06-01T15:14:41.761Z,6.62
2018-06-01T15:17:09.382Z,6.30
2018-06-01T15:19:36.747Z,6.60
2018-06-01T15:22:04.079Z,5.90
2018-06-01T15:24:31.395Z,6.20
2018-06-01T15:26:59.011Z,6.10
2018-06-01T15:29:26.392Z,6.30
2018-06-01T15:31:54.033Z,5.50
2018-06-01T15:34:21.401Z,5.35
2018-06-01T15:36:48.749Z,5.20
2018-06-01T15:39:16.107Z,5.30
2018-06-01T15:41:43.750Z,5.00
2018-06-01T15:44:11.075Z,5.00
2018-06-01T15:46:38.452Z,5.30
2018-06-01T15:49:05.805Z,5.40
2018-06-01T15:51:33.159Z,5.07
2018-06-01T15:54:00.482Z,5.20
2018-06-01T15:56:27.781Z,4.90
2018-06-01T15:58:55.087Z,4.75
2018-06-01T16:01:22.693Z,5.00
2018-06-01T16:03:50.029Z,4.28
2018-06-01T16:06:17.611Z,5.78
2018-06-01T16:08:44.940Z,4.85
2018-06-01T16:11:12.270Z,4.30
2018-06-01T16:13:39.576Z,4.20
2018-06-01T16:16:07.233Z,4.23
2018-06-01T16:18:34.575Z,4.05
2018-06-01T16:21:01.934Z,4.60
2018-06-01T16:23:29.515Z,4.15
2018-06-01T16:25:56.792Z,4.43
2018-06-01T16:28:24.076Z,4.10
2018-06-01T16:30:51.409Z,4.00
2018-06-01T16:33:18.706Z,3.85
2018-06-01T16:35:45.980Z,4.25
2018-06-01T16:38:13.265Z,4.05
2018-06-01T16:40:40.696Z,3.92
2018-06-01T16:43:07.980Z,4.65
2018-06-01T16:45:35.265Z,4.78
2018-06-01T16:48:02.851Z,4.97
2018-06-01T16:50:30.207Z,5.70
2018-06-01T16:52:57.514Z,5.80
2018-06-01T16:55:25.119Z,5.90
2018-06-01T16:57:52.422Z,6.00
2018-06-01T17:00:20.036Z,5.97
2018-06-01T17:02:47.313Z,6.22
2018-06-01T17:05:14.637Z,6.47
2018-06-01T17:07:41.912Z,7.17
2018-06-01T17:10:09.197Z,6.80
2018-06-01T17:12:36.517Z,8.02
2018-06-01T17:15:03.906Z,8.40
2018-06-01T17:17:31.181Z,8.52
2018-06-01T17:19:58.574Z,8.10
2018-06-01T17:22:25.878Z,7.80
2018-06-01T17:24:53.290Z,8.20
2018-06-01T17:27:20.594Z,7.82
2018-06-01T17:29:47.880Z,7.90
2018-06-01T17:32:15.448Z,8.15
2018-06-01T17:34:42.758Z,8.60
2018-06-01T17:37:10.040Z,8.80
2018-06-01T17:39:37.399Z,9.00
2018-06-01T17:42:05.079Z,9.00
2018-06-01T17:44:32.368Z,9.20
2018-06-01T17:46:59.880Z,8.32
2018-06-01T17:49:27.451Z,9.63
2018-06-01T17:51:54.766Z,10.98
2018-06-01T17:54:22.378Z,10.30
2018-06-01T17:56:49.694Z,8.40
2018-06-01T17:59:16.972Z,8.93
2018-06-01T18:01:44.261Z,10.30
2018-06-01T18:04:11.544Z,8.40
2018-06-01T18:06:38.870Z,8.88
2018-06-01T18:09:06.148Z,8.90
2018-06-01T18:11:33.485Z,8.93
2018-06-01T18:14:00.769Z,8.90
2018-06-01T18:16:28.292Z,9.45
2018-06-01T18:18:55.914Z,8.40
2018-06-01T18:21:23.205Z,10.13
2018-06-01T18:23:50.480Z,6.90
2018-06-01T18:26:18.078Z,6.47
2018-06-01T18:28:45.357Z,8.00
2018-06-01T18:31:12.652Z,8.67
2018-06-01T18:33:39.953Z,9.43
2018-06-01T18:36:07.244Z,10.97
2018-06-01T18:38:34.760Z,12.00
2018-06-01T18:41:02.076Z,10.30
2018-06-01T18:43:29.394Z,10.60
2018-06-01T18:45:57.036Z,11.95
2018-06-01T18:48:24.389Z,14.27
2018-06-01T18:50:51.710Z,12.00
2018-06-01T18:53:19.691Z,10.40
2018-06-01T18:55:46.956Z,9.90
2018-06-01T18:58:14.261Z,10.23
2018-06-01T19:00:41.604Z,10.90
2018-06-01T19:03:09.130Z,11.05
2018-06-01T19:05:36.488Z,7.30
2018-06-01T19:08:03.860Z,6.10
2018-06-01T19:10:31.092Z,6.00
2018-06-01T19:12:58.392Z,5.30
2018-06-01T19:15:25.681Z,5.60
2018-06-01T19:17:52.988Z,5.40
2018-06-01T19:20:20.290Z,5.85
2018-06-01T19:22:47.595Z,4.70
2018-06-01T19:25:15.223Z,5.20
2018-06-01T19:27:42.546Z,5.40
2018-06-01T19:30:09.913Z,5.47
2018-06-01T19:32:37.598Z,5.35
2018-06-01T19:35:04.873Z,5.55
2018-06-01T19:37:32.412Z,5.00
2018-06-01T19:39:59.706Z,5.20
2018-06-01T19:42:27.038Z,6.00
2018-06-01T19:44:54.358Z,5.90
2018-06-01T19:47:21.672Z,6.30
2018-06-01T19:49:48.958Z,5.70
2018-06-01T19:52:16.263Z,5.80
2018-06-01T19:54:43.557Z,6.00
2018-06-01T19:57:11.150Z,6.40
2018-06-01T19:59:38.446Z,6.00
2018-06-01T20:02:06.065Z,6.32
2018-06-01T20:04:33.329Z,6.43
2018-06-01T20:07:00.632Z,6.30
2018-06-01T20:09:27.938Z,6.15
2018-06-01T20:11:55.242Z,6.47
2018-06-01T20:14:22.538Z,6.30
2018-06-01T20:16:49.804Z,5.70
2018-06-01T20:19:17.105Z,6.80
2018-06-01T20:21:44.406Z,7.03
2018-06-01T20:24:11.676Z,6.97
2018-06-01T20:26:39.006Z,7.28
2018-06-01T20:29:06.277Z,7.17
2018-06-01T20:31:33.577Z,7.00
2018-06-01T20:34:00.860Z,8.30
2018-06-01T20:36:28.153Z,8.10
2018-06-01T20:38:55.450Z,8.10
2018-06-01T20:41:22.767Z,8.00
2018-06-01T20:43:50.386Z,8.00
2018-06-01T20:46:17.691Z,7.65
2018-06-01T20:48:44.986Z,7.25
2018-06-01T20:51:12.303Z,7.80
2018-06-01T20:53:39.637Z,7.50
2018-06-01T20:56:06.941Z,8.40
2018-06-01T20:58:34.224Z,8.40
2018-06-01T21:01:01.556Z,7.62
2018-06-01T21:03:29.110Z,7.03
2018-06-01T21:05:56.422Z,8.18
2018-06-01T21:08:23.706Z,8.18
2018-06-01T21:10:51.025Z,8.70
2018-06-01T21:13:18.331Z,9.30
2018-06-01T21:15:45.608Z,9.10
2018-06-01T21:18:12.909Z,8.60
2018-06-01T21:20:40.240Z,8.60
2018-06-01T21:23:07.768Z,8.35
2018-06-01T21:25:35.132Z,8.10
2018-06-01T21:28:02.422Z,8.60
2018-06-01T21:30:29.700Z,8.15
2018-06-01T21:32:56.992Z,8.20
2018-06-01T21:35:24.310Z,8.87
2018-06-01T21:37:51.589Z,8.30
2018-06-01T21:40:18.959Z,8.90
2018-06-01T21:42:46.508Z,9.10
2018-06-01T21:45:13.831Z,9.35
2018-06-01T21:47:41.393Z,9.60
2018-06-01T21:50:08.981Z,8.80
2018-06-01T21:52:36.547Z,9.13
2018-06-01T21:55:03.901Z,9.00
2018-06-01T21:57:31.226Z,8.77
2018-06-01T21:59:58.615Z,8.75
2018-06-01T22:02:25.958Z,9.13
2018-06-01T22:04:53.362Z,8.95
2018-06-01T22:07:20.987Z,9.50
2018-06-01T22:09:48.643Z,9.10
2018-06-01T22:12:16.302Z,9.20
2018-06-01T22:14:43.670Z,9.77
2018-06-01T22:17:10.965Z,9.57
2018-06-01T22:19:38.289Z,10.05
2018-06-01T22:22:05.820Z,10.70
2018-06-01T22:24:33.105Z,11.20
2018-06-01T22:27:00.439Z,11.25
2018-06-01T22:29:27.740Z,11.47
2018-06-01T22:31:55.213Z,10.77
2018-06-01T22:34:22.800Z,10.88
2018-06-01T22:36:50.119Z,10.80
2018-06-01T22:39:17.426Z,9.85
2018-06-01T22:41:44.717Z,9.80
2018-06-01T22:44:12.045Z,11.47
2018-06-01T22:46:39.347Z,10.43
2018-06-01T22:49:06.662Z,11.52
2018-06-01T22:51:33.987Z,10.57
2018-06-01T22:54:01.276Z,10.40
2018-06-01T22:56:28.589Z,11.48
2018-06-01T22:58:56.126Z,10.75
2018-06-01T23:01:23.420Z,10.87
2018-06-01T23:03:50.701Z,11.68
2018-06-01T23:06:18.026Z,12.45
2018-06-01T23:08:45.686Z,11.30
2018-06-01T23:11:13.009Z,11.30
2018-06-01T23:13:40.337Z,11.93
2018-06-01T23:16:07.960Z,11.48
2018-06-01T23:18:35.279Z,11.18
2018-06-01T23:21:02.589Z,10.77
2018-06-01T23:23:29.943Z,10.50
2018-06-01T23:25:57.582Z,10.60
2018-06-01T23:28:24.945Z,10.68
2018-06-01T23:30:52.312Z,11.50
2018-06-01T23:33:19.955Z,11.70
2018-06-01T23:35:47.298Z,12.02
2018-06-01T23:38:14.639Z,11.48
2018-06-01T23:40:42.327Z,11.50
2018-06-01T23:43:09.712Z,11.10
2018-06-01T23:45:37.341Z,11.93
2018-06-01T23:48:04.739Z,11.80
2018-06-01T23:50:32.090Z,11.90
2018-06-01T23:52:59.482Z,11.73
2018-06-01T23:55:26.837Z,11.65
2018-06-01T23:57:54.425Z,12.18
